Time;durP1;ratioP1;P1;durP2;ratioP2;P2;SDS_P1;SDS_P2;PMS_P1;PMS_P2;Temp;Humidity;BMP_temperature;BMP_pressure;BME280_temperature;BME280_humidity;BME280_pressure;Samples;Min_cycle;Max_cycle;Signal;HPM_P1;HPM_P2
2022/07/09 00:01:29;;;;;;;26.27;24.87;;;15.70;73.10;;;;;;5037458;28;20648;-68
2022/07/09 00:03:56;;;;;;;27.70;25.70;;;15.60;73.30;;;;;;5030704;28;20924;-67
2022/07/09 00:06:23;;;;;;;27.40;25.77;;;15.60;73.30;;;;;;5039528;28;20538;-68
2022/07/09 00:08:50;;;;;;;26.70;25.10;;;15.50;73.60;;;;;;5037776;28;20559;-68
2022/07/09 00:11:18;;;;;;;27.93;26.13;;;15.60;73.50;;;;;;5034146;28;20511;-68
2022/07/09 00:13:45;;;;;;;27.33;25.50;;;15.50;73.40;;;;;;5030796;28;20650;-68
2022/07/09 00:16:12;;;;;;;27.87;26.23;;;15.50;73.60;;;;;;5033746;28;20475;-68
2022/07/09 00:18:39;;;;;;;27.80;26.00;;;15.50;73.30;;;;;;5031685;28;20571;-67
2022/07/09 00:21:06;;;;;;;26.47;24.83;;;15.50;73.20;;;;;;5029490;28;21029;-67
2022/07/09 00:23:33;;;;;;;27.40;25.50;;;15.60;73.30;;;;;;5027089;28;20452;-67
2022/07/09 00:26:00;;;;;;;27.10;25.60;;;15.60;73.20;;;;;;5031053;28;20562;-67
2022/07/09 00:28:28;;;;;;;26.90;25.40;;;15.50;73.10;;;;;;5032528;28;20491;-66
2022/07/09 00:30:55;;;;;;;27.60;26.00;;;15.50;73.30;;;;;;5030663;28;20470;-66
2022/07/09 00:33:22;;;;;;;26.43;24.90;;;15.50;73.40;;;;;;5021797;28;20473;-65
2022/07/09 00:35:49;;;;;;;27.63;25.97;;;15.40;73.50;;;;;;5026703;28;20502;-66
2022/07/09 00:38:16;;;;;;;27.40;25.60;;;15.50;73.50;;;;;;5035554;28;20547;-66
2022/07/09 00:40:43;;;;;;;27.37;25.90;;;15.40;74.00;;;;;;5030422;28;20495;-66
2022/07/09 00:43:18;;;;;;;27.20;25.70;;;15.40;74.00;;;;;;5027899;28;20456;-66
2022/07/09 00:45:46;;;;;;;27.63;26.13;;;15.40;73.60;;;;;;5043874;28;20451;-68
2022/07/09 00:48:14;;;;;;;27.63;26.10;;;15.40;73.70;;;;;;5028092;28;20508;-68
2022/07/09 00:50:42;;;;;;;28.57;26.87;;;15.30;74.00;;;;;;5039969;28;20455;-68
2022/07/09 00:53:13;;;;;;;27.67;25.87;;;15.20;74.50;;;;;;5029058;28;20986;-66
2022/07/09 00:55:41;;;;;;;27.30;25.70;;;15.10;74.70;;;;;;5035676;28;20476;-65
2022/07/09 00:58:09;;;;;;;27.20;25.50;;;15.00;75.20;;;;;;5029790;28;20595;-66
2022/07/09 01:00:37;;;;;;;26.83;25.17;;;15.10;75.10;;;;;;5027265;28;20913;-66
2022/07/09 01:03:05;;;;;;;26.67;25.13;;;15.00;75.10;;;;;;5032952;28;20563;-65
2022/07/09 01:05:35;;;;;;;26.27;24.77;;;15.00;75.30;;;;;;5036849;28;20465;-66
2022/07/09 01:08:04;;;;;;;27.07;25.47;;;15.00;75.20;;;;;;5029804;28;21120;-65
2022/07/09 01:10:32;;;;;;;27.33;25.57;;;15.00;75.30;;;;;;5025843;28;20962;-66
2022/07/09 01:12:59;;;;;;;26.47;24.93;;;15.00;75.50;;;;;;5038029;28;20447;-66
2022/07/09 01:15:26;;;;;;;26.67;24.97;;;15.00;75.30;;;;;;5038590;28;20570;-66
2022/07/09 01:17:55;;;;;;;26.33;24.83;;;15.00;75.30;;;;;;5028278;28;20494;-65
2022/07/09 01:20:24;;;;;;;26.80;25.20;;;15.00;75.30;;;;;;5035386;28;20462;-65
2022/07/09 01:22:52;;;;;;;27.07;25.17;;;15.00;75.40;;;;;;5033046;28;20484;-66
2022/07/09 01:25:20;;;;;;;26.40;24.90;;;15.00;75.20;;;;;;5033196;28;20451;-66
2022/07/09 01:27:47;;;;;;;26.70;24.90;;;15.00;75.20;;;;;;5031591;28;20476;-66
2022/07/09 01:30:26;;;;;;;27.33;25.50;;;15.00;75.20;;;;;;5031375;28;20472;-66
2022/07/09 01:32:53;;;;;;;26.17;24.70;;;15.00;75.20;;;;;;5028674;28;20850;-66
2022/07/09 01:35:20;;;;;;;27.43;25.83;;;15.00;75.20;;;;;;5036944;28;20903;-66
2022/07/09 01:37:48;;;;;;;27.03;25.20;;;15.00;75.50;;;;;;5035562;28;21081;-68
2022/07/09 01:40:15;;;;;;;26.60;25.00;;;14.90;75.60;;;;;;5029267;28;20467;-68
2022/07/09 01:42:42;;;;;;;27.23;25.53;;;15.00;75.40;;;;;;5042273;28;20536;-70
2022/07/09 01:45:10;;;;;;;27.53;25.37;;;15.00;75.50;;;;;;5048270;28;20531;-67
2022/07/09 01:47:37;;;;;;;26.40;24.90;;;14.90;75.50;;;;;;5035320;28;20571;-68
2022/07/09 01:50:05;;;;;;;25.97;24.43;;;14.90;75.70;;;;;;5032876;28;20559;-68
2022/07/09 01:52:32;;;;;;;26.73;25.03;;;14.90;75.60;;;;;;5032074;28;20570;-67
2022/07/09 01:55:01;;;;;;;25.80;24.20;;;14.90;75.50;;;;;;5031152;28;20504;-67
2022/07/09 02:00:49;;;;;;;25.50;24.10;;;14.80;75.90;;;;;;5041067;28;20919;-67
2022/07/09 02:03:16;;;;;;;26.17;24.70;;;14.80;76.10;;;;;;5035230;28;20468;-69
2022/07/09 02:05:43;;;;;;;26.00;24.60;;;14.80;76.10;;;;;;5036007;28;20826;-68
2022/07/09 02:08:10;;;;;;;26.77;25.07;;;14.80;75.90;;;;;;5037698;28;20480;-68
2022/07/09 02:10:38;;;;;;;28.07;26.00;;;14.80;76.10;;;;;;5035004;28;20469;-68
2022/07/09 02:13:05;;;;;;;27.13;25.43;;;14.70;76.20;;;;;;5045343;28;20859;-68
2022/07/09 02:15:32;;;;;;;27.30;25.70;;;14.70;76.30;;;;;;5034374;28;21055;-66
2022/07/09 02:17:59;;;;;;;27.40;25.60;;;14.60;76.40;;;;;;5027219;28;20484;-66
2022/07/09 02:20:26;;;;;;;26.87;25.30;;;14.50;76.80;;;;;;5034854;28;20448;-65
2022/07/09 02:22:53;;;;;;;26.80;25.20;;;14.50;77.00;;;;;;5039906;28;20469;-66
2022/07/09 02:32:10;;;;;;;27.70;26.10;;;14.40;77.10;;;;;;5039794;28;20953;-66
2022/07/09 02:34:37;;;;;;;27.90;26.10;;;14.30;77.50;;;;;;5036864;28;20471;-67
2022/07/09 02:37:04;;;;;;;25.90;24.57;;;14.30;77.50;;;;;;5032687;28;20477;-68
2022/07/09 02:39:31;;;;;;;27.53;25.70;;;14.30;77.50;;;;;;5032353;28;20479;-68
2022/07/09 02:41:58;;;;;;;26.40;24.90;;;14.30;77.80;;;;;;5040206;28;20685;-68
2022/07/09 02:44:25;;;;;;;26.73;25.07;;;14.30;77.80;;;;;;5039622;28;20459;-67
2022/07/09 02:46:52;;;;;;;27.33;25.70;;;14.30;77.70;;;;;;5031221;28;20843;-66
2022/07/09 02:49:21;;;;;;;28.37;26.07;;;14.20;78.00;;;;;;5037440;28;21032;-65
2022/07/09 02:51:48;;;;;;;26.47;24.83;;;14.10;78.20;;;;;;5032451;28;20473;-66
2022/07/09 02:54:15;;;;;;;27.37;25.73;;;14.20;78.10;;;;;;5038820;28;20550;-66
2022/07/09 02:56:42;;;;;;;27.10;25.70;;;14.00;78.40;;;;;;5035987;28;20511;-66
2022/07/09 02:59:09;;;;;;;26.43;24.97;;;14.00;78.60;;;;;;5027810;28;21021;-71
2022/07/09 03:01:35;;;;;;;27.63;25.93;;;13.90;79.00;;;;;;5028740;28;20470;-65
2022/07/09 03:04:02;;;;;;;27.93;25.90;;;13.90;79.10;;;;;;5031049;28;20470;-66
2022/07/09 03:06:31;;;;;;;28.10;26.10;;;13.90;79.20;;;;;;5027427;28;20860;-66
2022/07/09 03:08:58;;;;;;;27.90;26.30;;;14.00;79.00;;;;;;5038579;28;21053;-68
2022/07/09 03:11:24;;;;;;;28.07;26.17;;;13.90;79.00;;;;;;5033932;28;20551;-67
2022/07/09 03:13:51;;;;;;;27.07;25.47;;;13.90;79.10;;;;;;5035588;28;20468;-69
2022/07/09 03:16:18;;;;;;;27.20;25.60;;;13.90;78.80;;;;;;5033250;28;20483;-67
2022/07/09 03:18:45;;;;;;;28.23;26.20;;;14.00;78.70;;;;;;5028262;28;20978;-69
2022/07/09 03:21:12;;;;;;;27.60;26.00;;;13.90;79.00;;;;;;5036769;28;20460;-66
2022/07/09 03:23:40;;;;;;;27.17;25.57;;;13.90;79.20;;;;;;5033434;28;20464;-67
2022/07/09 03:26:07;;;;;;;27.00;25.50;;;13.90;79.10;;;;;;5034493;28;20540;-67
2022/07/09 03:28:35;;;;;;;26.93;25.33;;;13.80;79.50;;;;;;5030631;28;20480;-67
2022/07/09 03:31:02;;;;;;;29.57;27.87;;;13.80;79.50;;;;;;5032065;28;20551;-67
2022/07/09 03:33:29;;;;;;;26.70;25.23;;;13.80;79.50;;;;;;5027030;28;20460;-68
2022/07/09 03:35:56;;;;;;;27.47;25.77;;;13.80;79.50;;;;;;5030841;28;20476;-68
2022/07/09 03:38:23;;;;;;;28.07;26.20;;;13.90;79.40;;;;;;5027726;28;20542;-67
2022/07/09 03:40:52;;;;;;;27.43;25.43;;;13.90;79.20;;;;;;5027217;28;20767;-67
2022/07/09 03:43:20;;;;;;;27.43;25.87;;;13.90;79.10;;;;;;5026817;28;20985;-68
2022/07/09 03:45:47;;;;;;;27.70;26.00;;;14.00;79.00;;;;;;5035212;28;20461;-68
2022/07/09 03:48:14;;;;;;;27.37;25.77;;;14.10;78.80;;;;;;5033672;28;20559;-68
2022/07/09 03:50:41;;;;;;;27.87;26.17;;;14.10;78.30;;;;;;5026688;28;20484;-67
2022/07/09 03:53:08;;;;;;;27.47;25.87;;;14.20;78.30;;;;;;5036992;28;20463;-67
2022/07/09 03:55:35;;;;;;;27.63;25.93;;;14.30;77.70;;;;;;5031224;28;20472;-67
2022/07/09 03:58:03;;;;;;;26.93;25.33;;;14.20;77.80;;;;;;5027147;28;20907;-67
2022/07/09 04:00:30;;;;;;;27.93;25.97;;;14.30;77.90;;;;;;5033732;28;20457;-65
2022/07/09 04:02:57;;;;;;;27.33;25.60;;;14.40;77.50;;;;;;5037432;28;20882;-66
2022/07/09 04:05:24;;;;;;;28.80;27.20;;;14.50;77.10;;;;;;5026972;28;20467;-66
2022/07/09 04:07:51;;;;;;;27.03;25.40;;;14.50;76.90;;;;;;5041026;28;20566;-66
2022/07/09 04:10:18;;;;;;;27.70;25.90;;;14.50;77.10;;;;;;5039942;28;20550;-65
2022/07/09 04:12:45;;;;;;;27.27;25.77;;;14.30;77.70;;;;;;5034110;28;20458;-66
2022/07/09 04:15:13;;;;;;;26.93;25.33;;;14.40;77.50;;;;;;5033285;28;20559;-66
2022/07/09 04:17:40;;;;;;;27.10;25.50;;;14.50;77.40;;;;;;5035313;28;20946;-66
2022/07/09 04:20:08;;;;;;;28.40;26.70;;;14.60;77.20;;;;;;5041682;28;20865;-66
2022/07/09 04:22:35;;;;;;;27.23;25.80;;;14.70;76.90;;;;;;5030220;28;20555;-66
2022/07/09 04:25:02;;;;;;;27.77;26.07;;;14.80;76.60;;;;;;5030392;28;20459;-68
2022/07/09 04:27:29;;;;;;;27.20;25.60;;;14.90;76.20;;;;;;5035495;28;21040;-67
2022/07/09 04:29:56;;;;;;;28.83;26.53;;;15.10;75.70;;;;;;5034106;28;20893;-71
2022/07/09 04:32:24;;;;;;;29.03;27.33;;;15.10;74.80;;;;;;5032846;28;20504;-67
2022/07/09 04:34:51;;;;;;;27.20;25.70;;;15.20;74.60;;;;;;5026185;28;20446;-68
2022/07/09 04:37:18;;;;;;;27.53;25.83;;;15.30;74.50;;;;;;5040400;28;20557;-68
2022/07/09 04:39:45;;;;;;;28.20;26.30;;;15.20;75.00;;;;;;5035061;28;20463;-68
2022/07/09 04:42:13;;;;;;;27.33;25.63;;;15.30;75.00;;;;;;5037725;28;20472;-70
2022/07/09 04:44:41;;;;;;;28.93;27.20;;;15.40;74.60;;;;;;5025069;28;20990;-68
2022/07/09 04:47:08;;;;;;;31.60;29.50;;;15.50;74.40;;;;;;5031266;28;20455;-68
2022/07/09 04:49:37;;;;;;;27.90;26.00;;;15.50;74.00;;;;;;5032839;28;20662;-68
2022/07/09 04:52:04;;;;;;;27.70;26.07;;;15.60;74.10;;;;;;5035422;28;20540;-67
2022/07/09 04:54:31;;;;;;;26.83;25.33;;;15.70;73.70;;;;;;5038748;28;20993;-67
2022/07/09 04:56:58;;;;;;;28.57;26.70;;;15.70;73.80;;;;;;5043347;28;20472;-67
2022/07/09 04:59:25;;;;;;;30.67;28.87;;;15.80;73.50;;;;;;5038359;28;20482;-68
2022/07/09 05:01:52;;;;;;;28.37;26.37;;;15.80;73.60;;;;;;5042431;28;20538;-68
2022/07/09 05:04:19;;;;;;;29.80;28.07;;;15.90;73.40;;;;;;5039377;28;20965;-68
2022/07/09 05:06:47;;;;;;;28.40;26.67;;;16.00;73.30;;;;;;5034301;28;20552;-68
2022/07/09 05:09:14;;;;;;;28.93;27.20;;;16.10;72.90;;;;;;5031394;28;20479;-67
2022/07/09 05:11:41;;;;;;;29.40;27.80;;;16.20;72.40;;;;;;5037247;28;20464;-68
2022/07/09 05:14:08;;;;;;;29.73;28.00;;;16.30;72.30;;;;;;5037609;28;20446;-68
2022/07/09 05:16:35;;;;;;;28.90;27.20;;;16.40;71.80;;;;;;5039995;28;20480;-68
2022/07/09 05:19:02;;;;;;;26.93;25.33;;;16.50;71.80;;;;;;5033144;28;20490;-71
2022/07/09 05:21:29;;;;;;;27.00;25.37;;;16.60;71.30;;;;;;5044138;28;20460;-66
2022/07/09 05:23:57;;;;;;;27.40;25.63;;;16.60;71.60;;;;;;5046014;28;20546;-66
2022/07/09 05:26:24;;;;;;;28.43;26.73;;;16.80;71.30;;;;;;5030558;28;20455;-68
2022/07/09 05:28:51;;;;;;;27.27;25.67;;;16.80;71.10;;;;;;5033667;28;20475;-65
2022/07/09 05:31:18;;;;;;;30.50;28.70;;;17.00;70.40;;;;;;5036687;28;20979;-66
2022/07/09 05:33:45;;;;;;;29.47;27.37;;;17.10;70.30;;;;;;5044246;28;20471;-66
2022/07/09 05:36:11;;;;;;;27.80;26.20;;;17.20;69.60;;;;;;5031257;28;20530;-68
2022/07/09 05:38:38;;;;;;;29.57;27.47;;;17.20;69.40;;;;;;5042505;28;20590;-66
2022/07/09 05:41:08;;;;;;;28.57;26.60;;;17.30;69.70;;;;;;5042791;28;20572;-65
2022/07/09 05:43:35;;;;;;;27.53;25.90;;;17.40;69.70;;;;;;5032602;28;20491;-66
2022/07/09 05:46:01;;;;;;;28.37;26.67;;;17.50;69.30;;;;;;5041546;28;20456;-66
2022/07/09 05:48:28;;;;;;;28.57;26.37;;;17.70;69.40;;;;;;5030019;28;20482;-66
2022/07/09 05:50:55;;;;;;;27.47;25.77;;;17.90;68.70;;;;;;5033509;28;20492;-66
2022/07/09 05:53:22;;;;;;;28.47;26.73;;;18.00;68.10;;;;;;5036940;28;20452;-68
2022/07/09 05:55:49;;;;;;;27.67;25.97;;;18.20;67.60;;;;;;5033926;28;20551;-69
2022/07/09 05:58:17;;;;;;;28.73;26.93;;;18.30;67.20;;;;;;5031735;28;20567;-71
2022/07/09 06:00:44;;;;;;;30.23;28.53;;;18.50;66.00;;;;;;5043832;28;20459;-76
2022/07/09 06:03:11;;;;;;;28.73;26.97;;;18.60;65.50;;;;;;5030518;28;20454;-75
2022/07/09 06:05:38;;;;;;;30.07;28.10;;;18.70;65.50;;;;;;5043636;28;20463;-68
2022/07/09 06:08:05;;;;;;;27.40;25.80;;;18.80;65.30;;;;;;5031214;28;20508;-69
2022/07/09 06:10:32;;;;;;;26.90;25.20;;;18.90;65.50;;;;;;5026928;28;20472;-71
2022/07/09 06:12:59;;;;;;;27.10;25.50;;;18.90;65.40;;;;;;5029651;28;20587;-69
2022/07/09 06:15:28;;;;;;;26.80;25.20;;;19.00;65.00;;;;;;5027002;28;20461;-69
2022/07/09 06:17:55;;;;;;;27.97;25.37;;;19.20;64.60;;;;;;5028451;28;20902;-71
2022/07/09 06:20:21;;;;;;;25.97;24.47;;;19.30;63.90;;;;;;5041514;28;20499;-70
2022/07/09 06:22:49;;;;;;;25.63;24.13;;;19.50;63.80;;;;;;5033607;28;20902;-71
2022/07/09 06:25:16;;;;;;;27.80;25.80;;;19.70;63.40;;;;;;5028331;28;20830;-70
2022/07/09 06:27:43;;;;;;;26.37;24.57;;;19.90;62.50;;;;;;5028462;28;20811;-70
2022/07/09 06:30:10;;;;;;;27.23;25.53;;;20.00;62.10;;;;;;5030048;28;20477;-71
2022/07/09 06:32:38;;;;;;;27.40;25.40;;;20.20;61.70;;;;;;5030917;28;20470;-71
2022/07/09 06:35:06;;;;;;;27.27;25.47;;;20.40;60.80;;;;;;5027825;28;20490;-70
2022/07/09 06:37:36;;;;;;;31.50;29.70;;;20.50;60.20;;;;;;5039466;28;21183;-68
2022/07/09 06:40:03;;;;;;;27.50;25.80;;;20.50;60.00;;;;;;5036534;28;20464;-68
2022/07/09 06:42:30;;;;;;;26.90;25.30;;;20.70;59.90;;;;;;5034018;28;20533;-68
2022/07/09 06:44:57;;;;;;;27.00;25.33;;;20.90;59.50;;;;;;5035190;28;20465;-68
2022/07/09 06:47:24;;;;;;;29.30;27.33;;;21.00;59.10;;;;;;5041223;28;20456;-69
2022/07/09 06:49:52;;;;;;;28.10;26.30;;;21.10;59.10;;;;;;5042338;28;20672;-68
2022/07/09 06:52:19;;;;;;;27.93;25.93;;;21.10;58.50;;;;;;5040701;28;20473;-69
2022/07/09 06:54:46;;;;;;;27.40;25.70;;;21.10;58.40;;;;;;5036018;28;20453;-69
2022/07/09 06:57:13;;;;;;;27.40;25.70;;;21.10;58.60;;;;;;5041092;28;20482;-68
2022/07/09 06:59:41;;;;;;;26.70;25.10;;;21.10;58.40;;;;;;5033496;28;20464;-69
2022/07/09 07:02:08;;;;;;;27.90;26.30;;;21.30;58.20;;;;;;5044525;28;20485;-68
2022/07/09 07:04:35;;;;;;;29.63;27.67;;;21.30;58.50;;;;;;5033224;28;20548;-67
2022/07/09 07:07:04;;;;;;;28.50;26.83;;;21.50;58.20;;;;;;5037319;28;20815;-75
2022/07/09 07:09:31;;;;;;;27.63;25.97;;;21.60;57.70;;;;;;5033787;28;20732;-70
2022/07/09 07:11:58;;;;;;;29.87;27.73;;;21.80;58.20;;;;;;5038127;28;20466;-69
2022/07/09 07:14:25;;;;;;;29.07;27.47;;;22.00;57.80;;;;;;5037726;28;20451;-69
2022/07/09 07:16:53;;;;;;;30.53;28.23;;;22.10;58.00;;;;;;5043223;28;20483;-70
2022/07/09 07:19:21;;;;;;;29.80;28.10;;;22.10;58.20;;;;;;5038248;28;20485;-71
2022/07/09 07:21:48;;;;;;;28.30;26.40;;;22.10;58.40;;;;;;5035430;28;21410;-74
2022/07/09 07:24:16;;;;;;;27.43;25.73;;;22.30;58.30;;;;;;5027137;28;20465;-70
2022/07/09 07:26:44;;;;;;;28.37;26.17;;;22.40;57.70;;;;;;5027814;28;20524;-71
2022/07/09 07:29:11;;;;;;;27.67;26.07;;;22.40;57.40;;;;;;5027110;28;20468;-70
2022/07/09 07:31:38;;;;;;;28.53;26.60;;;22.40;57.60;;;;;;5040736;28;20540;-69
2022/07/09 07:34:04;;;;;;;27.40;25.80;;;22.40;57.40;;;;;;5030758;28;20559;-70
2022/07/09 07:36:31;;;;;;;28.07;26.47;;;22.50;57.10;;;;;;5029537;28;21015;-70
2022/07/09 07:38:58;;;;;;;27.10;25.30;;;22.60;57.00;;;;;;5029114;28;20566;-73
2022/07/09 07:41:26;;;;;;;27.87;26.17;;;22.70;56.80;;;;;;5029536;28;20561;-71
2022/07/09 07:43:54;;;;;;;29.60;27.70;;;22.80;56.80;;;;;;5033230;28;20459;-72
2022/07/09 07:46:21;;;;;;;28.77;26.73;;;22.80;56.40;;;;;;5027180;28;21006;-71
2022/07/09 07:48:48;;;;;;;28.80;26.77;;;22.90;56.40;;;;;;5034612;28;20463;-74
2022/07/09 07:51:14;;;;;;;28.73;27.00;;;22.90;56.50;;;;;;5028761;28;20467;-71
2022/07/09 07:53:42;;;;;;;26.63;24.93;;;23.00;56.10;;;;;;5035692;28;20583;-71
2022/07/09 07:56:09;;;;;;;30.17;28.20;;;23.10;55.90;;;;;;5030296;28;20499;-71
2022/07/09 07:58:37;;;;;;;28.23;26.53;;;23.00;55.10;;;;;;5029807;28;20858;-72
2022/07/09 08:01:05;;;;;;;28.03;26.27;;;22.90;55.00;;;;;;5034294;28;20849;-71
2022/07/09 08:03:32;;;;;;;27.10;25.40;;;23.00;55.00;;;;;;5027202;28;20451;-70
2022/07/09 08:05:58;;;;;;;26.80;25.30;;;23.10;55.00;;;;;;5031049;28;21037;-71
2022/07/09 08:08:26;;;;;;;28.63;26.83;;;23.20;54.00;;;;;;5029874;28;20471;-71
2022/07/09 08:10:53;;;;;;;28.13;26.50;;;23.30;53.10;;;;;;5032881;28;20521;-72
2022/07/09 08:13:20;;;;;;;27.80;26.20;;;23.50;51.70;;;;;;5038000;28;20482;-70
2022/07/09 08:15:48;;;;;;;30.07;28.20;;;23.60;52.70;;;;;;5027497;28;20942;-70
2022/07/09 08:18:15;;;;;;;27.63;26.10;;;23.60;52.50;;;;;;5026825;28;20740;-71
2022/07/09 08:20:43;;;;;;;29.53;27.83;;;23.40;53.10;;;;;;5033732;28;20967;-71
2022/07/09 08:23:10;;;;;;;28.57;26.80;;;23.30;53.20;;;;;;5037683;28;20459;-70
2022/07/09 08:25:37;;;;;;;29.97;28.27;;;23.30;53.60;;;;;;5036168;28;20452;-70
2022/07/09 08:28:05;;;;;;;28.20;26.60;;;23.30;53.40;;;;;;5041797;28;20549;-69
2022/07/09 08:30:32;;;;;;;28.60;27.00;;;23.40;53.40;;;;;;5034189;28;20452;-70
2022/07/09 08:33:00;;;;;;;30.23;28.50;;;23.40;53.80;;;;;;5041952;28;20452;-70
2022/07/09 08:35:27;;;;;;;27.30;25.80;;;23.50;54.00;;;;;;5031229;28;20454;-70
2022/07/09 08:37:55;;;;;;;27.53;25.83;;;23.60;53.10;;;;;;5043218;28;20514;-70
2022/07/09 08:40:22;;;;;;;28.70;27.00;;;23.50;53.60;;;;;;5043824;28;20470;-70
2022/07/09 08:42:49;;;;;;;28.37;26.57;;;23.40;54.30;;;;;;5043585;28;20491;-70
2022/07/09 08:45:18;;;;;;;28.27;26.57;;;23.60;54.40;;;;;;5033403;28;20482;-70
2022/07/09 08:47:45;;;;;;;28.20;26.50;;;23.50;54.50;;;;;;5041622;28;20922;-70
2022/07/09 08:50:14;;;;;;;26.97;25.40;;;23.50;54.70;;;;;;5044712;28;20461;-70
2022/07/09 08:52:43;;;;;;;27.77;26.07;;;23.60;54.30;;;;;;5039536;28;20554;-69
2022/07/09 08:55:10;;;;;;;27.60;26.10;;;23.70;54.00;;;;;;5042296;28;20470;-70
2022/07/09 08:57:38;;;;;;;28.73;27.03;;;23.70;54.00;;;;;;5044866;28;20492;-69
2022/07/09 09:00:07;;;;;;;29.30;27.60;;;23.90;53.10;;;;;;5037809;28;20464;-70
2022/07/09 09:02:37;;;;;;;28.33;26.63;;;23.80;53.10;;;;;;5038642;28;20491;-70
2022/07/09 09:05:10;;;;;;;29.57;27.77;;;23.90;53.00;;;;;;5034143;28;20551;-69
2022/07/09 09:07:38;;;;;;;26.50;25.00;;;24.10;52.70;;;;;;5038076;28;20896;-70
2022/07/09 09:10:06;;;;;;;30.73;29.07;;;24.30;52.00;;;;;;5033966;28;20539;-70
2022/07/09 09:12:33;;;;;;;26.93;25.40;;;24.50;52.00;;;;;;5042081;28;20464;-71
2022/07/09 09:15:00;;;;;;;27.57;26.00;;;24.70;51.50;;;;;;5031876;28;20464;-70
2022/07/09 09:17:27;;;;;;;29.40;27.80;;;24.80;51.40;;;;;;5032058;28;20484;-69
2022/07/09 09:19:54;;;;;;;26.17;24.73;;;25.00;50.80;;;;;;5037238;28;20538;-70
2022/07/09 09:22:21;;;;;;;28.70;27.13;;;25.00;50.30;;;;;;5037754;28;20527;-70
2022/07/09 09:24:53;;;;;;;29.30;27.50;;;25.20;50.40;;;;;;5040193;28;20465;-71
2022/07/09 09:27:30;;;;;;;26.97;25.47;;;25.30;49.80;;;;;;5035584;28;20456;-71
2022/07/09 09:30:00;;;;;;;26.40;24.70;;;25.40;49.10;;;;;;5029934;28;20464;-70
2022/07/09 09:32:27;;;;;;;28.40;26.80;;;25.40;49.50;;;;;;5044782;28;20470;-70
2022/07/09 09:34:54;;;;;;;30.60;28.80;;;25.50;49.50;;;;;;5040414;28;20561;-72
2022/07/09 09:37:29;;;;;;;29.37;27.77;;;25.60;49.40;;;;;;5048292;28;20482;-70
2022/07/09 09:39:57;;;;;;;26.90;25.30;;;25.70;49.00;;;;;;5035815;28;20454;-68
2022/07/09 09:42:26;;;;;;;27.30;25.70;;;25.60;48.80;;;;;;5043260;28;20466;-71
2022/07/09 09:44:53;;;;;;;27.37;25.77;;;25.60;49.40;;;;;;5036658;28;20467;-70
2022/07/09 09:47:25;;;;;;;27.40;25.80;;;25.60;49.40;;;;;;5044183;28;20554;-70
2022/07/09 09:49:52;;;;;;;30.03;28.07;;;25.70;49.60;;;;;;5043128;28;20546;-70
2022/07/09 09:52:20;;;;;;;26.93;25.30;;;25.80;48.40;;;;;;5036257;28;20546;-71
2022/07/09 09:54:49;;;;;;;28.50;26.80;;;25.80;48.90;;;;;;5038331;28;20467;-73
2022/07/09 09:57:17;;;;;;;29.83;27.80;;;25.90;48.60;;;;;;5037631;28;20472;-70
2022/07/09 09:59:46;;;;;;;27.50;25.90;;;25.90;48.30;;;;;;5042673;28;20547;-71
2022/07/09 10:02:14;;;;;;;27.17;25.50;;;25.90;48.50;;;;;;5035082;28;20464;-71
2022/07/09 10:04:43;;;;;;;26.70;25.10;;;26.00;48.90;;;;;;5031269;28;20818;-71
2022/07/09 10:07:12;;;;;;;27.07;25.03;;;26.20;48.10;;;;;;5039251;28;20465;-70
2022/07/09 10:09:39;;;;;;;27.30;25.60;;;26.30;47.70;;;;;;5036940;28;20459;-68
2022/07/09 10:12:08;;;;;;;26.13;24.63;;;26.40;47.60;;;;;;5041964;28;20459;-71
2022/07/09 10:14:39;;;;;;;25.53;23.93;;;26.60;47.30;;;;;;5040118;28;20455;-74
2022/07/09 10:17:13;;;;;;;26.50;24.80;;;26.80;47.40;;;;;;5035567;28;20552;-71
2022/07/09 10:19:53;;;;;;;27.20;25.50;;;27.00;47.00;;;;;;5031183;28;20460;-72
2022/07/09 10:22:20;;;;;;;26.67;25.00;;;27.00;46.50;;;;;;5037948;28;20451;-72
2022/07/09 10:24:50;;;;;;;27.30;25.40;;;27.00;47.10;;;;;;5031572;28;20983;-72
2022/07/09 10:27:17;;;;;;;28.10;26.50;;;27.20;46.50;;;;;;5036215;28;20878;-71
2022/07/09 10:29:57;;;;;;;26.10;24.60;;;27.30;46.20;;;;;;5044880;28;20622;-72
2022/07/09 10:32:28;;;;;;;28.60;27.00;;;27.50;46.10;;;;;;5030186;28;20922;-74
2022/07/09 10:34:58;;;;;;;27.67;25.97;;;27.40;45.00;;;;;;5033253;28;20556;-74
2022/07/09 10:37:33;;;;;;;29.10;27.20;;;27.30;44.70;;;;;;5035433;28;20547;-73
2022/07/09 10:40:22;;;;;;;25.90;24.40;;;26.90;44.80;;;;;;5038649;28;20557;-75
2022/07/09 10:42:59;;;;;;;25.40;23.63;;;26.60;45.20;;;;;;5032393;28;20462;-75
2022/07/09 10:45:31;;;;;;;26.20;24.70;;;26.50;45.80;;;;;;5034488;28;20452;-75
2022/07/09 10:47:59;;;;;;;27.67;25.90;;;26.80;45.00;;;;;;5034783;28;20480;-74
2022/07/09 10:50:28;;;;;;;25.70;24.20;;;26.90;44.80;;;;;;5036025;28;20472;-74
2022/07/09 10:52:55;;;;;;;25.80;24.40;;;27.10;44.80;;;;;;5037923;28;20466;-77
2022/07/09 10:55:24;;;;;;;25.93;24.43;;;27.40;44.60;;;;;;5037265;28;20488;-76
2022/07/09 10:57:52;;;;;;;26.73;25.23;;;27.70;44.00;;;;;;5028364;28;21096;-76
2022/07/09 11:00:20;;;;;;;27.40;25.90;;;28.00;44.60;;;;;;5041543;28;20473;-77
2022/07/09 11:03:00;;;;;;;30.77;29.17;;;28.30;45.70;;;;;;5040907;28;20470;-77
2022/07/09 11:05:27;;;;;;;26.27;24.67;;;28.50;43.30;;;;;;5037995;28;20443;-75
2022/07/09 11:08:00;;;;;;;27.83;26.03;;;28.40;42.20;;;;;;5041110;28;20837;-75
2022/07/09 11:10:27;;;;;;;27.70;26.00;;;28.30;42.10;;;;;;5035721;28;20464;-75
2022/07/09 11:12:55;;;;;;;28.30;26.50;;;28.20;41.30;;;;;;5038153;28;20455;-76
2022/07/09 11:15:23;;;;;;;25.67;24.10;;;27.70;42.40;;;;;;5038309;28;20456;-75
2022/07/09 11:17:58;;;;;;;26.60;24.90;;;27.60;42.40;;;;;;5040961;28;20856;-75
2022/07/09 11:20:26;;;;;;;31.87;30.37;;;27.60;42.80;;;;;;5037586;28;21068;-76
2022/07/09 11:22:56;;;;;;;26.40;24.90;;;27.60;42.50;;;;;;5040052;28;20536;-75
2022/07/09 11:25:25;;;;;;;28.03;26.53;;;27.40;43.80;;;;;;5037067;28;20458;-75
2022/07/09 11:27:52;;;;;;;27.30;25.80;;;26.90;45.10;;;;;;5030496;28;20486;-74
2022/07/09 11:30:20;;;;;;;25.53;24.03;;;26.70;45.40;;;;;;5033741;28;20845;-72
2022/07/09 11:32:47;;;;;;;26.53;25.03;;;26.80;45.80;;;;;;5044001;28;21024;-73
2022/07/09 11:35:26;;;;;;;24.70;23.40;;;27.00;45.80;;;;;;5035176;28;20463;-73
2022/07/09 11:37:53;;;;;;;27.17;25.27;;;27.20;45.40;;;;;;5043857;28;20901;-72
2022/07/09 11:40:21;;;;;;;26.10;24.57;;;27.20;45.10;;;;;;5040002;28;20461;-73
2022/07/09 11:42:50;;;;;;;27.17;25.47;;;26.90;45.40;;;;;;5043894;28;20495;-73
2022/07/09 11:45:21;;;;;;;26.60;25.10;;;26.40;46.40;;;;;;5036119;28;20470;-73
2022/07/09 11:47:48;;;;;;;26.53;24.93;;;25.90;47.40;;;;;;5035811;28;20494;-73
2022/07/09 11:50:19;;;;;;;30.70;28.53;;;25.70;47.80;;;;;;5029558;28;20574;-73
2022/07/09 11:52:48;;;;;;;27.53;25.80;;;25.60;48.20;;;;;;5042174;28;20558;-73
2022/07/09 11:55:18;;;;;;;26.93;25.40;;;25.70;47.40;;;;;;5033533;28;20528;-74
2022/07/09 11:57:56;;;;;;;28.63;26.97;;;26.00;47.40;;;;;;5030279;28;20475;-73
2022/07/09 12:00:25;;;;;;;28.57;26.67;;;26.30;46.90;;;;;;5034244;28;20874;-73
2022/07/09 12:02:52;;;;;;;25.80;24.30;;;26.50;46.30;;;;;;5042235;28;20459;-72
2022/07/09 12:05:31;;;;;;;25.87;24.20;;;26.90;45.60;;;;;;5031744;28;20456;-73
2022/07/09 12:07:59;;;;;;;26.40;24.80;;;27.20;45.80;;;;;;5034541;28;20472;-73
2022/07/09 12:10:28;;;;;;;26.47;25.00;;;27.60;44.60;;;;;;5037629;28;20460;-75
2022/07/09 12:12:57;;;;;;;26.73;25.20;;;27.50;44.00;;;;;;5034248;28;20460;-75
2022/07/09 12:15:24;;;;;;;28.10;26.43;;;27.50;44.50;;;;;;5030243;28;20543;-73
2022/07/09 12:17:55;;;;;;;27.50;25.80;;;27.60;45.20;;;;;;5038399;28;20487;-73
2022/07/09 12:20:23;;;;;;;26.07;24.60;;;27.70;44.20;;;;;;5034343;28;20467;-74
2022/07/09 12:22:51;;;;;;;26.07;24.47;;;27.50;44.40;;;;;;5040440;28;20456;-74
2022/07/09 12:25:19;;;;;;;25.30;24.00;;;27.40;44.60;;;;;;5035011;28;20458;-75
2022/07/09 12:27:46;;;;;;;25.80;24.30;;;27.20;45.40;;;;;;5036180;28;20472;-75
2022/07/09 12:30:14;;;;;;;32.13;30.53;;;26.70;46.70;;;;;;5026469;28;20563;-76
2022/07/09 12:32:42;;;;;;;29.17;27.43;;;26.60;47.00;;;;;;5033159;28;20567;-75
2022/07/09 12:35:10;;;;;;;26.57;24.87;;;26.60;47.30;;;;;;5037560;28;20466;-76
2022/07/09 12:37:37;;;;;;;26.80;25.20;;;26.70;46.90;;;;;;5042598;28;20498;-75
2022/07/09 12:40:07;;;;;;;28.90;27.20;;;26.70;46.80;;;;;;5032552;28;20504;-76
2022/07/09 12:42:34;;;;;;;27.13;25.63;;;26.80;47.00;;;;;;5031673;28;20463;-76